sensor_id;sensor_type;location;lat;lon;timestamp;pressure;altitude;pressure_sealevel;temperature;humidity
3444;BME280;1736;52.068;6.968;2023-02-26T00:02:11;101261.41;;;0.84;86.66
3444;BME280;1736;52.068;6.968;2023-02-26T00:04:40;101265.22;;;0.74;86.98
3444;BME280;1736;52.068;6.968;2023-02-26T00:07:07;101256.28;;;0.81;86.70
3444;BME280;1736;52.068;6.968;2023-02-26T00:09:33;101266.03;;;0.76;86.77
3444;BME280;1736;52.068;6.968;2023-02-26T00:12:00;101275.25;;;0.61;86.64
3444;BME280;1736;52.068;6.968;2023-02-26T00:14:28;101268.16;;;0.65;87.01
3444;BME280;1736;52.068;6.968;2023-02-26T00:19:50;101269.25;;;0.58;87.08
3444;BME280;1736;52.068;6.968;2023-02-26T00:22:17;101277.38;;;0.50;87.30
3444;BME280;1736;52.068;6.968;2023-02-26T00:24:44;101285.34;;;0.46;87.04
3444;BME280;1736;52.068;6.968;2023-02-26T00:27:11;101286.00;;;0.52;87.55
3444;BME280;1736;52.068;6.968;2023-02-26T00:29:38;101289.91;;;0.39;88.12
3444;BME280;1736;52.068;6.968;2023-02-26T00:32:05;101281.53;;;0.56;87.63
3444;BME280;1736;52.068;6.968;2023-02-26T00:34:32;101296.56;;;0.49;87.07
3444;BME280;1736;52.068;6.968;2023-02-26T00:37:09;101291.56;;;0.42;87.48
3444;BME280;1736;52.068;6.968;2023-02-26T00:39:46;101292.78;;;0.32;88.08
3444;BME280;1736;52.068;6.968;2023-02-26T00:42:15;101300.78;;;0.26;88.06
3444;BME280;1736;52.068;6.968;2023-02-26T00:44:42;101308.75;;;0.23;87.87
3444;BME280;1736;52.068;6.968;2023-02-26T00:47:16;101310.44;;;0.24;87.85
3444;BME280;1736;52.068;6.968;2023-02-26T00:49:53;101309.97;;;0.11;88.83
3444;BME280;1736;52.068;6.968;2023-02-26T00:52:28;101321.34;;;0.08;88.81
3444;BME280;1736;52.068;6.968;2023-02-26T00:54:58;101312.00;;;0.01;88.60
3444;BME280;1736;52.068;6.968;2023-02-26T00:57:24;101319.28;;;-0.08;89.54
3444;BME280;1736;52.068;6.968;2023-02-26T00:59:51;101321.06;;;-0.10;89.78
3444;BME280;1736;52.068;6.968;2023-02-26T01:02:17;101316.97;;;-0.19;90.07
3444;BME280;1736;52.068;6.968;2023-02-26T01:04:44;101306.34;;;-0.13;90.20
3444;BME280;1736;52.068;6.968;2023-02-26T01:07:13;101309.47;;;-0.29;90.74
3444;BME280;1736;52.068;6.968;2023-02-26T01:09:41;101312.34;;;-0.38;91.47
3444;BME280;1736;52.068;6.968;2023-02-26T01:12:10;101321.81;;;-0.36;92.09
3444;BME280;1736;52.068;6.968;2023-02-26T01:14:39;101327.19;;;-0.40;91.87
3444;BME280;1736;52.068;6.968;2023-02-26T01:17:10;101309.34;;;-0.54;92.46
3444;BME280;1736;52.068;6.968;2023-02-26T01:19:43;101316.59;;;-0.65;93.07
3444;BME280;1736;52.068;6.968;2023-02-26T01:22:18;101319.16;;;-0.63;93.58
3444;BME280;1736;52.068;6.968;2023-02-26T01:24:48;101329.53;;;-0.62;93.18
3444;BME280;1736;52.068;6.968;2023-02-26T01:27:18;101325.41;;;-0.69;93.20
3444;BME280;1736;52.068;6.968;2023-02-26T01:29:45;101330.88;;;-0.78;93.67
3444;BME280;1736;52.068;6.968;2023-02-26T01:32:15;101334.34;;;-0.77;94.33
3444;BME280;1736;52.068;6.968;2023-02-26T01:34:48;101336.34;;;-0.87;94.42
3444;BME280;1736;52.068;6.968;2023-02-26T01:37:22;101335.44;;;-0.86;94.83
3444;BME280;1736;52.068;6.968;2023-02-26T01:40:06;101337.13;;;-0.85;94.36
3444;BME280;1736;52.068;6.968;2023-02-26T01:42:39;101331.66;;;-0.76;93.94
3444;BME280;1736;52.068;6.968;2023-02-26T01:45:11;101339.66;;;-0.82;93.41
3444;BME280;1736;52.068;6.968;2023-02-26T01:47:42;101339.72;;;-0.85;93.29
3444;BME280;1736;52.068;6.968;2023-02-26T01:50:13;101345.28;;;-0.97;93.82
3444;BME280;1736;52.068;6.968;2023-02-26T01:55:54;101352.09;;;-0.93;93.40
3444;BME280;1736;52.068;6.968;2023-02-26T01:58:23;101364.66;;;-1.07;93.38
3444;BME280;1736;52.068;6.968;2023-02-26T02:00:51;101352.53;;;-1.08;94.07
3444;BME280;1736;52.068;6.968;2023-02-26T02:03:18;101357.81;;;-1.11;94.04
3444;BME280;1736;52.068;6.968;2023-02-26T02:05:49;101360.34;;;-1.08;93.95
3444;BME280;1736;52.068;6.968;2023-02-26T02:08:16;101364.88;;;-1.16;94.30
3444;BME280;1736;52.068;6.968;2023-02-26T02:10:45;101370.16;;;-1.19;94.22
3444;BME280;1736;52.068;6.968;2023-02-26T02:13:25;101371.75;;;-1.13;93.80
3444;BME280;1736;52.068;6.968;2023-02-26T02:16:01;101373.81;;;-1.26;94.17
3444;BME280;1736;52.068;6.968;2023-02-26T02:18:37;101384.44;;;-1.35;94.15
3444;BME280;1736;52.068;6.968;2023-02-26T02:21:27;101380.97;;;-1.35;94.12
3444;BME280;1736;52.068;6.968;2023-02-26T02:23:57;101388.94;;;-1.40;94.45
3444;BME280;1736;52.068;6.968;2023-02-26T02:26:53;101390.84;;;-1.48;94.46
3444;BME280;1736;52.068;6.968;2023-02-26T02:29:49;101390.06;;;-1.53;94.30
3444;BME280;1736;52.068;6.968;2023-02-26T02:32:21;101392.81;;;-1.57;94.54
3444;BME280;1736;52.068;6.968;2023-02-26T02:34:53;101398.97;;;-1.61;95.14
3444;BME280;1736;52.068;6.968;2023-02-26T02:37:24;101390.44;;;-1.68;95.70
3444;BME280;1736;52.068;6.968;2023-02-26T02:39:57;101396.59;;;-1.70;95.80
3444;BME280;1736;52.068;6.968;2023-02-26T02:42:29;101395.63;;;-1.66;95.37
3444;BME280;1736;52.068;6.968;2023-02-26T02:44:59;101401.97;;;-1.79;95.37
3444;BME280;1736;52.068;6.968;2023-02-26T02:47:31;101409.75;;;-1.78;96.05
3444;BME280;1736;52.068;6.968;2023-02-26T02:50:04;101414.19;;;-1.83;95.95
3444;BME280;1736;52.068;6.968;2023-02-26T02:52:36;101420.09;;;-1.75;95.08
3444;BME280;1736;52.068;6.968;2023-02-26T02:55:09;101408.06;;;-1.80;94.62
3444;BME280;1736;52.068;6.968;2023-02-26T02:57:40;101413.97;;;-1.72;94.27
3444;BME280;1736;52.068;6.968;2023-02-26T03:00:11;101408.88;;;-1.77;94.16
3444;BME280;1736;52.068;6.968;2023-02-26T03:02:46;101416.47;;;-1.68;94.30
3444;BME280;1736;52.068;6.968;2023-02-26T03:05:15;101418.25;;;-1.70;93.63
3444;BME280;1736;52.068;6.968;2023-02-26T03:07:53;101417.28;;;-1.66;92.78
3444;BME280;1736;52.068;6.968;2023-02-26T03:10:21;101428.63;;;-1.68;92.49
3444;BME280;1736;52.068;6.968;2023-02-26T03:12:48;101429.38;;;-1.63;92.33
3444;BME280;1736;52.068;6.968;2023-02-26T03:15:18;101433.31;;;-1.46;91.35
3444;BME280;1736;52.068;6.968;2023-02-26T03:17:54;101431.97;;;-1.63;91.26
3444;BME280;1736;52.068;6.968;2023-02-26T03:20:26;101429.25;;;-1.57;91.02
3444;BME280;1736;52.068;6.968;2023-02-26T03:23:03;101430.38;;;-1.69;90.82
3444;BME280;1736;52.068;6.968;2023-02-26T03:25:39;101424.44;;;-1.75;91.42
3444;BME280;1736;52.068;6.968;2023-02-26T03:28:15;101438.13;;;-1.67;91.24
3444;BME280;1736;52.068;6.968;2023-02-26T03:30:47;101439.06;;;-1.70;90.53
3444;BME280;1736;52.068;6.968;2023-02-26T03:33:21;101443.41;;;-1.69;90.21
3444;BME280;1736;52.068;6.968;2023-02-26T03:35:52;101444.34;;;-1.73;90.35
3444;BME280;1736;52.068;6.968;2023-02-26T03:38:26;101453.00;;;-1.74;90.20
3444;BME280;1736;52.068;6.968;2023-02-26T03:40:57;101451.47;;;-1.81;90.09
3444;BME280;1736;52.068;6.968;2023-02-26T03:43:29;101459.97;;;-1.73;89.76
3444;BME280;1736;52.068;6.968;2023-02-26T03:46:02;101464.28;;;-1.73;89.50
3444;BME280;1736;52.068;6.968;2023-02-26T03:48:33;101461.03;;;-1.83;89.55
3444;BME280;1736;52.068;6.968;2023-02-26T03:51:03;101467.91;;;-1.80;89.41
3444;BME280;1736;52.068;6.968;2023-02-26T03:53:35;101466.19;;;-1.80;89.39
3444;BME280;1736;52.068;6.968;2023-02-26T03:56:10;101478.47;;;-1.88;89.21
3444;BME280;1736;52.068;6.968;2023-02-26T03:58:37;101482.06;;;-1.93;90.05
3444;BME280;1736;52.068;6.968;2023-02-26T04:01:08;101489.84;;;-1.92;89.94
3444;BME280;1736;52.068;6.968;2023-02-26T04:03:42;101485.81;;;-2.06;90.22
3444;BME280;1736;52.068;6.968;2023-02-26T04:06:10;101484.91;;;-2.05;90.10
3444;BME280;1736;52.068;6.968;2023-02-26T04:08:38;101502.25;;;-2.06;90.47
3444;BME280;1736;52.068;6.968;2023-02-26T04:11:08;101496.00;;;-1.96;90.06
3444;BME280;1736;52.068;6.968;2023-02-26T04:13:35;101490.94;;;-2.03;89.39
3444;BME280;1736;52.068;6.968;2023-02-26T04:16:02;101505.69;;;-2.04;89.30
3444;BME280;1736;52.068;6.968;2023-02-26T04:18:29;101504.06;;;-2.11;89.95
3444;BME280;1736;52.068;6.968;2023-02-26T04:20:57;101524.84;;;-2.09;89.52
3444;BME280;1736;52.068;6.968;2023-02-26T04:23:24;101526.53;;;-2.07;89.72
3444;BME280;1736;52.068;6.968;2023-02-26T04:25:50;101519.28;;;-1.91;88.68
3444;BME280;1736;52.068;6.968;2023-02-26T04:28:17;101524.69;;;-2.02;89.06
3444;BME280;1736;52.068;6.968;2023-02-26T04:30:44;101530.81;;;-2.04;89.08
3444;BME280;1736;52.068;6.968;2023-02-26T04:33:12;101529.75;;;-1.93;88.40
3444;BME280;1736;52.068;6.968;2023-02-26T04:35:39;101539.47;;;-2.02;87.92
3444;BME280;1736;52.068;6.968;2023-02-26T04:38:08;101545.47;;;-2.00;88.55
3444;BME280;1736;52.068;6.968;2023-02-26T04:40:34;101548.81;;;-1.94;87.42
3444;BME280;1736;52.068;6.968;2023-02-26T04:43:01;101547.97;;;-1.93;87.97
3444;BME280;1736;52.068;6.968;2023-02-26T04:45:28;101544.44;;;-1.90;87.45
3444;BME280;1736;52.068;6.968;2023-02-26T04:47:54;101549.03;;;-2.04;87.72
3444;BME280;1736;52.068;6.968;2023-02-26T04:50:21;101549.88;;;-2.02;88.11
3444;BME280;1736;52.068;6.968;2023-02-26T04:52:47;101554.81;;;-1.89;86.88
3444;BME280;1736;52.068;6.968;2023-02-26T04:55:15;101554.19;;;-2.03;87.31
3444;BME280;1736;52.068;6.968;2023-02-26T04:57:42;101564.59;;;-2.03;87.39
3444;BME280;1736;52.068;6.968;2023-02-26T05:00:10;101568.09;;;-2.04;87.35
3444;BME280;1736;52.068;6.968;2023-02-26T05:02:37;101562.09;;;-2.07;87.22
3444;BME280;1736;52.068;6.968;2023-02-26T05:05:04;101561.97;;;-2.01;87.40
3444;BME280;1736;52.068;6.968;2023-02-26T05:07:31;101582.00;;;-2.05;87.27
3444;BME280;1736;52.068;6.968;2023-02-26T05:09:58;101576.09;;;-2.14;86.94
3444;BME280;1736;52.068;6.968;2023-02-26T05:12:26;101580.34;;;-2.09;87.39
3444;BME280;1736;52.068;6.968;2023-02-26T05:14:53;101587.50;;;-2.23;87.69
3444;BME280;1736;52.068;6.968;2023-02-26T05:17:19;101590.81;;;-2.13;87.19
3444;BME280;1736;52.068;6.968;2023-02-26T05:19:46;101599.53;;;-2.16;87.10
3444;BME280;1736;52.068;6.968;2023-02-26T05:22:12;101603.00;;;-2.17;87.24
3444;BME280;1736;52.068;6.968;2023-02-26T05:24:39;101600.56;;;-2.26;87.69
3444;BME280;1736;52.068;6.968;2023-02-26T05:27:06;101602.16;;;-2.19;87.70
3444;BME280;1736;52.068;6.968;2023-02-26T05:29:34;101607.50;;;-2.26;87.46
3444;BME280;1736;52.068;6.968;2023-02-26T05:32:01;101615.44;;;-2.34;88.06
3444;BME280;1736;52.068;6.968;2023-02-26T05:34:27;101618.84;;;-2.32;88.17
3444;BME280;1736;52.068;6.968;2023-02-26T05:36:54;101618.69;;;-2.23;88.15
3444;BME280;1736;52.068;6.968;2023-02-26T05:39:21;101620.59;;;-2.32;87.90
3444;BME280;1736;52.068;6.968;2023-02-26T05:41:47;101623.75;;;-2.14;87.82
3444;BME280;1736;52.068;6.968;2023-02-26T05:44:16;101631.84;;;-2.30;87.95
3444;BME280;1736;52.068;6.968;2023-02-26T05:46:44;101637.06;;;-2.33;88.15
3444;BME280;1736;52.068;6.968;2023-02-26T05:49:10;101629.22;;;-2.29;87.77
3444;BME280;1736;52.068;6.968;2023-02-26T05:51:37;101635.41;;;-2.37;87.84
3444;BME280;1736;52.068;6.968;2023-02-26T05:54:04;101638.00;;;-2.36;88.03
3444;BME280;1736;52.068;6.968;2023-02-26T05:56:31;101634.41;;;-2.29;88.34
3444;BME280;1736;52.068;6.968;2023-02-26T05:58:58;101644.91;;;-2.35;88.22
3444;BME280;1736;52.068;6.968;2023-02-26T06:01:24;101649.38;;;-2.44;88.09
3444;BME280;1736;52.068;6.968;2023-02-26T06:03:52;101658.00;;;-2.41;88.39
3444;BME280;1736;52.068;6.968;2023-02-26T06:06:19;101653.50;;;-2.30;88.54
3444;BME280;1736;52.068;6.968;2023-02-26T06:08:46;101667.44;;;-2.35;88.26
3444;BME280;1736;52.068;6.968;2023-02-26T06:11:13;101663.19;;;-2.41;88.29
3444;BME280;1736;52.068;6.968;2023-02-26T06:13:39;101665.88;;;-2.47;88.33
3444;BME280;1736;52.068;6.968;2023-02-26T06:16:06;101667.50;;;-2.40;88.78
3444;BME280;1736;52.068;6.968;2023-02-26T06:18:33;101675.38;;;-2.44;88.72
3444;BME280;1736;52.068;6.968;2023-02-26T06:21:01;101672.81;;;-2.46;88.63
3444;BME280;1736;52.068;6.968;2023-02-26T06:23:28;101685.84;;;-2.47;88.81
3444;BME280;1736;52.068;6.968;2023-02-26T06:25:54;101686.59;;;-2.41;89.04
3444;BME280;1736;52.068;6.968;2023-02-26T06:28:21;101693.50;;;-2.40;88.99
3444;BME280;1736;52.068;6.968;2023-02-26T06:30:49;101698.63;;;-2.34;88.86
3444;BME280;1736;52.068;6.968;2023-02-26T06:33:17;101701.47;;;-2.52;89.37
3444;BME280;1736;52.068;6.968;2023-02-26T06:35:43;101710.91;;;-2.43;89.21
3444;BME280;1736;52.068;6.968;2023-02-26T06:38:11;101711.72;;;-2.41;89.04
3444;BME280;1736;52.068;6.968;2023-02-26T06:40:38;101713.53;;;-2.46;89.17
3444;BME280;1736;52.068;6.968;2023-02-26T06:43:05;101715.22;;;-2.42;89.18
3444;BME280;1736;52.068;6.968;2023-02-26T06:45:32;101729.81;;;-2.34;88.65
3444;BME280;1736;52.068;6.968;2023-02-26T06:47:58;101725.44;;;-2.32;89.00
3444;BME280;1736;52.068;6.968;2023-02-26T06:50:25;101737.47;;;-2.25;88.73
3444;BME280;1736;52.068;6.968;2023-02-26T06:52:52;101742.69;;;-2.26;88.69
3444;BME280;1736;52.068;6.968;2023-02-26T06:55:20;101753.00;;;-2.20;88.08
3444;BME280;1736;52.068;6.968;2023-02-26T06:57:51;101751.31;;;-2.24;88.34
3444;BME280;1736;52.068;6.968;2023-02-26T07:00:18;101759.13;;;-2.24;88.11
3444;BME280;1736;52.068;6.968;2023-02-26T07:02:44;101769.56;;;-2.26;88.44
3444;BME280;1736;52.068;6.968;2023-02-26T07:05:11;101767.63;;;-2.13;88.09
3444;BME280;1736;52.068;6.968;2023-02-26T07:07:38;101771.09;;;-2.13;88.30
3444;BME280;1736;52.068;6.968;2023-02-26T07:10:05;101771.66;;;-1.94;87.51
3444;BME280;1736;52.068;6.968;2023-02-26T07:12:34;101769.13;;;-1.99;87.56
3444;BME280;1736;52.068;6.968;2023-02-26T07:15:03;101770.84;;;-1.98;87.82
3444;BME280;1736;52.068;6.968;2023-02-26T07:17:29;101785.25;;;-1.77;87.34
3444;BME280;1736;52.068;6.968;2023-02-26T07:19:56;101785.13;;;-1.70;87.03
3444;BME280;1736;52.068;6.968;2023-02-26T07:22:23;101792.84;;;-1.64;86.62
3444;BME280;1736;52.068;6.968;2023-02-26T07:24:50;101793.59;;;-1.56;86.40
3444;BME280;1736;52.068;6.968;2023-02-26T07:27:16;101797.84;;;-1.52;86.24
3444;BME280;1736;52.068;6.968;2023-02-26T07:29:44;101794.19;;;-1.42;85.79
3444;BME280;1736;52.068;6.968;2023-02-26T07:32:11;101799.22;;;-1.31;85.66
3444;BME280;1736;52.068;6.968;2023-02-26T07:34:37;101797.13;;;-1.13;84.96
3444;BME280;1736;52.068;6.968;2023-02-26T07:37:04;101804.00;;;-1.09;84.22
3444;BME280;1736;52.068;6.968;2023-02-26T07:39:31;101802.41;;;-1.16;84.05
3444;BME280;1736;52.068;6.968;2023-02-26T07:41:57;101804.09;;;-1.13;84.32
3444;BME280;1736;52.068;6.968;2023-02-26T07:44:24;101811.53;;;-0.94;83.31
3444;BME280;1736;52.068;6.968;2023-02-26T07:46:51;101810.53;;;-0.87;83.07
3444;BME280;1736;52.068;6.968;2023-02-26T07:49:18;101824.28;;;-0.79;82.16
3444;BME280;1736;52.068;6.968;2023-02-26T07:51:45;101816.47;;;-0.79;82.21
3444;BME280;1736;52.068;6.968;2023-02-26T07:54:12;101825.81;;;-0.69;82.40
3444;BME280;1736;52.068;6.968;2023-02-26T07:56:39;101825.53;;;-0.55;81.14
3444;BME280;1736;52.068;6.968;2023-02-26T07:59:07;101827.22;;;-0.53;81.22
3444;BME280;1736;52.068;6.968;2023-02-26T08:01:34;101829.91;;;-0.57;81.41
3444;BME280;1736;52.068;6.968;2023-02-26T08:04:02;101830.53;;;-0.45;81.81
3444;BME280;1736;52.068;6.968;2023-02-26T08:06:29;101839.00;;;-0.34;80.41
3444;BME280;1736;52.068;6.968;2023-02-26T08:08:56;101832.91;;;-0.34;80.53
3444;BME280;1736;52.068;6.968;2023-02-26T08:11:23;101841.50;;;-0.29;80.65
3444;BME280;1736;52.068;6.968;2023-02-26T08:13:49;101847.38;;;-0.20;80.19
3444;BME280;1736;52.068;6.968;2023-02-26T08:16:16;101845.50;;;-0.15;79.45
3444;BME280;1736;52.068;6.968;2023-02-26T08:18:43;101849.56;;;0.00;78.66
3444;BME280;1736;52.068;6.968;2023-02-26T08:21:11;101860.59;;;0.11;78.64
3444;BME280;1736;52.068;6.968;2023-02-26T08:23:37;101866.41;;;0.25;77.79
3444;BME280;1736;52.068;6.968;2023-02-26T08:26:06;101861.06;;;0.28;78.13
3444;BME280;1736;52.068;6.968;2023-02-26T08:28:33;101862.44;;;0.44;77.10
3444;BME280;1736;52.068;6.968;2023-02-26T08:31:00;101862.47;;;0.43;76.70
3444;BME280;1736;52.068;6.968;2023-02-26T08:33:28;101871.84;;;0.51;76.52
3444;BME280;1736;52.068;6.968;2023-02-26T08:35:54;101869.94;;;0.58;76.61
3444;BME280;1736;52.068;6.968;2023-02-26T08:38:24;101874.94;;;0.67;76.05
3444;BME280;1736;52.068;6.968;2023-02-26T08:40:52;101881.06;;;0.66;75.20
3444;BME280;1736;52.068;6.968;2023-02-26T08:43:18;101893.09;;;0.73;75.17
3444;BME280;1736;52.068;6.968;2023-02-26T08:45:46;101892.81;;;0.83;74.17
3444;BME280;1736;52.068;6.968;2023-02-26T08:48:13;101893.63;;;0.85;73.71
3444;BME280;1736;52.068;6.968;2023-02-26T08:50:39;101890.16;;;0.86;73.33
3444;BME280;1736;52.068;6.968;2023-02-26T08:53:06;101902.94;;;0.97;73.72
3444;BME280;1736;52.068;6.968;2023-02-26T08:55:34;101909.22;;;0.90;74.01
3444;BME280;1736;52.068;6.968;2023-02-26T08:58:00;101905.44;;;1.00;73.50
3444;BME280;1736;52.068;6.968;2023-02-26T09:00:27;101908.06;;;1.00;72.50
3444;BME280;1736;52.068;6.968;2023-02-26T09:02:54;101922.03;;;0.99;72.17
3444;BME280;1736;52.068;6.968;2023-02-26T09:05:21;101916.00;;;0.97;72.19
3444;BME280;1736;52.068;6.968;2023-02-26T09:07:48;101926.28;;;1.03;72.08
3444;BME280;1736;52.068;6.968;2023-02-26T09:10:15;101924.28;;;1.14;73.10
3444;BME280;1736;52.068;6.968;2023-02-26T09:12:43;101929.28;;;1.23;72.27
3444;BME280;1736;52.068;6.968;2023-02-26T09:15:11;101934.44;;;1.26;71.38
3444;BME280;1736;52.068;6.968;2023-02-26T09:17:38;101922.03;;;1.32;70.46
3444;BME280;1736;52.068;6.968;2023-02-26T09:20:06;101937.75;;;1.32;69.53
3444;BME280;1736;52.068;6.968;2023-02-26T09:22:33;101920.00;;;1.43;68.73
3444;BME280;1736;52.068;6.968;2023-02-26T09:25:00;101942.75;;;1.40;69.33
3444;BME280;1736;52.068;6.968;2023-02-26T09:27:27;101940.03;;;1.44;68.52
3444;BME280;1736;52.068;6.968;2023-02-26T09:29:55;101934.53;;;1.53;68.85
3444;BME280;1736;52.068;6.968;2023-02-26T09:32:21;101940.47;;;1.60;67.99
3444;BME280;1736;52.068;6.968;2023-02-26T09:34:50;101943.91;;;1.62;66.31
3444;BME280;1736;52.068;6.968;2023-02-26T09:37:17;101946.31;;;1.69;66.67
3444;BME280;1736;52.068;6.968;2023-02-26T09:39:44;101947.06;;;1.73;66.47
3444;BME280;1736;52.068;6.968;2023-02-26T09:42:20;101948.53;;;1.84;64.26
3444;BME280;1736;52.068;6.968;2023-02-26T09:44:51;101956.44;;;1.81;61.73
3444;BME280;1736;52.068;6.968;2023-02-26T09:47:22;101950.97;;;1.89;61.58
3444;BME280;1736;52.068;6.968;2023-02-26T09:49:53;101958.00;;;1.88;61.57
3444;BME280;1736;52.068;6.968;2023-02-26T09:52:25;101962.28;;;1.91;61.86
3444;BME280;1736;52.068;6.968;2023-02-26T09:54:56;101967.44;;;1.94;61.39
3444;BME280;1736;52.068;6.968;2023-02-26T09:57:28;101958.34;;;2.07;62.30
3444;BME280;1736;52.068;6.968;2023-02-26T09:59:56;101962.44;;;2.15;61.59
3444;BME280;1736;52.068;6.968;2023-02-26T10:02:33;101971.78;;;2.24;61.02
3444;BME280;1736;52.068;6.968;2023-02-26T10:05:14;101976.03;;;2.28;59.89
3444;BME280;1736;52.068;6.968;2023-02-26T10:07:46;101977.81;;;2.26;59.08
3444;BME280;1736;52.068;6.968;2023-02-26T10:10:21;101979.53;;;2.28;58.15
3444;BME280;1736;52.068;6.968;2023-02-26T10:12:51;101990.75;;;2.32;57.77
3444;BME280;1736;52.068;6.968;2023-02-26T10:15:21;101987.81;;;2.42;57.67
3444;BME280;1736;52.068;6.968;2023-02-26T10:18:02;101989.28;;;2.52;58.07
3444;BME280;1736;52.068;6.968;2023-02-26T10:20:33;101996.31;;;2.78;56.32
3444;BME280;1736;52.068;6.968;2023-02-26T10:23:03;101987.16;;;2.91;56.16
3444;BME280;1736;52.068;6.968;2023-02-26T10:25:36;102007.88;;;3.00;54.75
3444;BME280;1736;52.068;6.968;2023-02-26T10:28:19;101994.16;;;2.92;54.16
3444;BME280;1736;52.068;6.968;2023-02-26T10:30:57;101995.41;;;3.06;53.06
3444;BME280;1736;52.068;6.968;2023-02-26T10:33:34;102003.31;;;3.31;52.36
3444;BME280;1736;52.068;6.968;2023-02-26T10:36:11;102009.78;;;3.47;52.48
3444;BME280;1736;52.068;6.968;2023-02-26T10:38:41;102005.75;;;3.37;51.86
3444;BME280;1736;52.068;6.968;2023-02-26T10:41:12;101995.50;;;3.29;51.86
3444;BME280;1736;52.068;6.968;2023-02-26T10:43:42;102017.31;;;3.31;51.62
3444;BME280;1736;52.068;6.968;2023-02-26T10:46:21;102000.63;;;3.34;52.49
3444;BME280;1736;52.068;6.968;2023-02-26T10:49:15;102008.16;;;3.43;51.21
3444;BME280;1736;52.068;6.968;2023-02-26T10:51:46;101998.25;;;3.77;52.44
3444;BME280;1736;52.068;6.968;2023-02-26T10:54:15;102015.38;;;3.87;50.06
3444;BME280;1736;52.068;6.968;2023-02-26T10:56:44;102010.66;;;3.72;48.69
3444;BME280;1736;52.068;6.968;2023-02-26T10:59:11;102021.06;;;3.75;49.15
3444;BME280;1736;52.068;6.968;2023-02-26T11:01:38;102021.69;;;3.57;48.96
3444;BME280;1736;52.068;6.968;2023-02-26T11:04:10;102027.13;;;3.51;49.57
3444;BME280;1736;52.068;6.968;2023-02-26T11:06:40;102009.72;;;3.48;49.84
3444;BME280;1736;52.068;6.968;2023-02-26T11:09:18;102015.75;;;3.52;50.49
3444;BME280;1736;52.068;6.968;2023-02-26T11:11:47;102033.63;;;3.41;49.93
3444;BME280;1736;52.068;6.968;2023-02-26T11:14:14;102027.69;;;3.36;50.33
3444;BME280;1736;52.068;6.968;2023-02-26T11:16:45;102022.94;;;3.45;52.23
3444;BME280;1736;52.068;6.968;2023-02-26T11:19:15;102033.09;;;3.30;50.00
3444;BME280;1736;52.068;6.968;2023-02-26T11:21:44;102014.47;;;3.37;50.80
3444;BME280;1736;52.068;6.968;2023-02-26T11:24:15;102028.78;;;3.29;50.10
3444;BME280;1736;52.068;6.968;2023-02-26T11:26:47;102032.41;;;3.25;50.46
3444;BME280;1736;52.068;6.968;2023-02-26T11:29:16;102017.72;;;3.19;50.23
3444;BME280;1736;52.068;6.968;2023-02-26T11:31:47;102024.84;;;3.16;51.29
3444;BME280;1736;52.068;6.968;2023-02-26T11:34:20;102020.56;;;3.13;50.78
3444;BME280;1736;52.068;6.968;2023-02-26T11:36:48;102023.06;;;3.16;51.03
3444;BME280;1736;52.068;6.968;2023-02-26T11:39:17;102023.09;;;3.15;51.82
3444;BME280;1736;52.068;6.968;2023-02-26T11:41:47;102029.16;;;3.17;52.50
3444;BME280;1736;52.068;6.968;2023-02-26T11:44:16;102032.34;;;3.26;51.45
3444;BME280;1736;52.068;6.968;2023-02-26T11:46:48;102019.38;;;3.22;51.68
3444;BME280;1736;52.068;6.968;2023-02-26T11:49:21;102021.81;;;3.28;52.05
3444;BME280;1736;52.068;6.968;2023-02-26T11:52:02;102008.97;;;3.19;50.92
3444;BME280;1736;52.068;6.968;2023-02-26T11:54:34;102017.00;;;3.14;48.94
3444;BME280;1736;52.068;6.968;2023-02-26T11:57:02;102012.91;;;3.06;49.23
3444;BME280;1736;52.068;6.968;2023-02-26T11:59:32;102019.94;;;3.05;49.63
3444;BME280;1736;52.068;6.968;2023-02-26T12:02:04;102013.53;;;3.14;49.73
3444;BME280;1736;52.068;6.968;2023-02-26T12:04:39;102004.72;;;3.15;49.09
3444;BME280;1736;52.068;6.968;2023-02-26T12:07:11;102009.28;;;3.10;50.62
3444;BME280;1736;52.068;6.968;2023-02-26T12:09:39;102008.22;;;3.15;49.73
3444;BME280;1736;52.068;6.968;2023-02-26T12:12:25;101999.69;;;3.35;50.30
3444;BME280;1736;52.068;6.968;2023-02-26T12:15:08;102002.91;;;3.43;50.84
3444;BME280;1736;52.068;6.968;2023-02-26T12:17:56;102004.66;;;3.68;50.99
3444;BME280;1736;52.068;6.968;2023-02-26T12:20:31;101997.81;;;3.64;49.83
3444;BME280;1736;52.068;6.968;2023-02-26T12:23:10;102010.38;;;3.81;49.53
3444;BME280;1736;52.068;6.968;2023-02-26T12:26:06;102014.19;;;3.71;48.94
3444;BME280;1736;52.068;6.968;2023-02-26T12:32:03;102011.06;;;3.60;49.08
3444;BME280;1736;52.068;6.968;2023-02-26T12:34:57;102009.88;;;3.70;49.47
3444;BME280;1736;52.068;6.968;2023-02-26T12:37:41;102008.94;;;3.71;50.54
3444;BME280;1736;52.068;6.968;2023-02-26T12:40:25;102021.06;;;3.75;50.19
3444;BME280;1736;52.068;6.968;2023-02-26T12:43:00;102022.13;;;3.69;51.07
3444;BME280;1736;52.068;6.968;2023-02-26T12:45:44;102009.72;;;3.74;51.33
3444;BME280;1736;52.068;6.968;2023-02-26T12:48:35;102006.88;;;3.80;49.63
3444;BME280;1736;52.068;6.968;2023-02-26T12:51:11;102006.13;;;3.77;48.44
3444;BME280;1736;52.068;6.968;2023-02-26T12:54:11;102014.19;;;3.71;48.82
3444;BME280;1736;52.068;6.968;2023-02-26T12:57:02;102019.22;;;3.78;48.57
3444;BME280;1736;52.068;6.968;2023-02-26T12:59:50;102018.75;;;3.66;49.27
3444;BME280;1736;52.068;6.968;2023-02-26T13:02:35;102011.34;;;3.78;49.97
3444;BME280;1736;52.068;6.968;2023-02-26T13:05:22;102019.13;;;3.80;49.79
3444;BME280;1736;52.068;6.968;2023-02-26T13:07:59;102019.91;;;3.83;50.22
3444;BME280;1736;52.068;6.968;2023-02-26T13:10:41;102019.03;;;3.83;49.71
3444;BME280;1736;52.068;6.968;2023-02-26T13:13:27;102022.03;;;3.97;50.08
3444;BME280;1736;52.068;6.968;2023-02-26T13:16:04;102021.72;;;4.06;50.81
3444;BME280;1736;52.068;6.968;2023-02-26T13:18:38;102011.00;;;4.10;49.66
3444;BME280;1736;52.068;6.968;2023-02-26T13:21:13;102009.50;;;4.28;50.31
3444;BME280;1736;52.068;6.968;2023-02-26T13:23:48;102009.97;;;4.39;50.64
3444;BME280;1736;52.068;6.968;2023-02-26T13:26:17;101993.28;;;4.40;50.28
3444;BME280;1736;52.068;6.968;2023-02-26T13:28:51;102003.06;;;4.36;51.03
3444;BME280;1736;52.068;6.968;2023-02-26T13:31:25;102003.72;;;4.18;49.40
3444;BME280;1736;52.068;6.968;2023-02-26T13:33:54;102004.75;;;4.14;50.92
3444;BME280;1736;52.068;6.968;2023-02-26T13:36:23;102000.13;;;4.21;51.30
3444;BME280;1736;52.068;6.968;2023-02-26T13:39:02;101996.81;;;4.16;50.47
3444;BME280;1736;52.068;6.968;2023-02-26T13:41:40;102001.13;;;4.17;50.22
3444;BME280;1736;52.068;6.968;2023-02-26T13:44:28;102003.22;;;4.32;50.76